createdAt,value
2019-05-10T00:00:16.897Z,11.96
2019-05-10T00:01:19.870Z,11.97
2019-05-10T00:02:16.844Z,11.99
2019-05-10T00:03:16.852Z,11.89
2019-05-10T00:04:16.801Z,11.94
2019-05-10T00:05:16.774Z,11.89
2019-05-10T00:06:16.750Z,11.94
2019-05-10T00:07:16.727Z,11.99
2019-05-10T00:08:16.704Z,12.05
2019-05-10T00:09:16.680Z,11.96
2019-05-10T00:10:16.657Z,11.90
2019-05-10T00:11:16.634Z,11.94
2019-05-10T00:12:16.610Z,11.96
2019-05-10T00:13:16.586Z,11.99
2019-05-10T00:14:16.563Z,11.97
2019-05-10T00:15:16.613Z,12.02
2019-05-10T00:16:16.518Z,12.01
2019-05-10T00:17:16.493Z,11.93
2019-05-10T00:18:16.473Z,11.93
2019-05-10T00:19:16.447Z,11.90
2019-05-10T00:20:16.424Z,11.97
2019-05-10T00:21:16.400Z,11.83
2019-05-10T00:22:16.380Z,11.86
2019-05-10T00:23:16.354Z,11.87
2019-05-10T00:24:16.331Z,11.78
2019-05-10T00:25:16.307Z,11.75
2019-05-10T00:26:16.283Z,11.74
2019-05-10T00:27:16.260Z,11.80
2019-05-10T00:28:16.237Z,11.83
2019-05-10T00:29:16.214Z,11.90
2019-05-10T00:30:16.201Z,11.87
2019-05-10T00:31:16.175Z,11.86
2019-05-10T00:32:16.144Z,11.90
2019-05-10T00:33:16.120Z,11.97
2019-05-10T00:34:16.096Z,11.86
2019-05-10T00:35:16.074Z,11.93
2019-05-10T00:36:16.051Z,11.90
2019-05-10T00:37:16.026Z,11.90
2019-05-10T00:38:16.004Z,11.87
2019-05-10T00:39:19.259Z,11.82
2019-05-10T00:40:15.966Z,11.90
2019-05-10T00:41:15.934Z,11.82
2019-05-10T00:42:15.991Z,11.82
2019-05-10T00:43:15.988Z,11.83
2019-05-10T00:44:15.866Z,11.78
2019-05-10T00:45:15.842Z,11.80
2019-05-10T00:46:15.817Z,11.83
2019-05-10T00:47:15.793Z,11.72
2019-05-10T00:48:15.772Z,11.82
2019-05-10T00:49:15.747Z,11.77
2019-05-10T00:50:15.735Z,11.80
2019-05-10T00:51:15.702Z,11.70
2019-05-10T00:52:15.677Z,11.70
2019-05-10T00:53:15.653Z,11.56
2019-05-10T00:54:15.632Z,11.56
2019-05-10T00:55:18.767Z,11.36
2019-05-10T00:56:15.586Z,11.35
2019-05-10T00:57:15.560Z,11.39
2019-05-10T00:58:15.537Z,11.24
2019-05-10T00:59:15.514Z,11.16
2019-05-10T01:00:15.491Z,11.10
2019-05-10T01:01:18.602Z,11.09
2019-05-10T01:02:15.443Z,11.09
2019-05-10T01:03:15.420Z,10.96
2019-05-10T01:04:16.147Z,11.03
2019-05-10T01:05:15.374Z,11.10
2019-05-10T01:06:15.349Z,11.07
2019-05-10T01:07:15.327Z,11.03
2019-05-10T01:08:15.302Z,10.89
2019-05-10T01:09:15.278Z,10.77
2019-05-10T01:10:15.254Z,10.77
2019-05-10T01:11:15.230Z,10.76
2019-05-10T01:12:15.207Z,10.71
2019-05-10T01:13:15.182Z,10.71
2019-05-10T01:14:15.162Z,10.74
2019-05-10T01:15:15.136Z,10.77
2019-05-10T01:16:15.112Z,10.80
2019-05-10T01:17:15.087Z,10.62
2019-05-10T01:18:15.066Z,10.73
2019-05-10T01:19:15.044Z,10.66
2019-05-10T01:20:15.016Z,10.65
2019-05-10T01:21:14.994Z,10.55
2019-05-10T01:22:14.967Z,10.62
2019-05-10T01:23:14.945Z,10.74
2019-05-10T01:24:14.927Z,10.63
2019-05-10T01:25:14.896Z,10.53
2019-05-10T01:26:14.872Z,10.53
2019-05-10T01:27:14.852Z,10.40
2019-05-10T01:28:14.828Z,10.51
2019-05-10T01:29:14.800Z,10.42
2019-05-10T01:30:14.776Z,10.47
2019-05-10T01:31:14.752Z,10.36
2019-05-10T01:32:14.730Z,10.37
2019-05-10T01:33:14.704Z,10.43
2019-05-10T01:34:14.681Z,10.32
2019-05-10T01:35:14.656Z,10.26
2019-05-10T01:36:14.631Z,10.14
2019-05-10T01:37:14.607Z,10.24
2019-05-10T01:38:14.583Z,10.28
2019-05-10T01:39:14.559Z,10.14
2019-05-10T01:40:14.535Z,10.17
2019-05-10T01:41:14.510Z,10.28
2019-05-10T01:42:14.486Z,10.15
2019-05-10T01:43:14.462Z,10.10
2019-05-10T01:44:14.437Z,10.17
2019-05-10T01:45:14.415Z,10.14
2019-05-10T01:46:15.139Z,10.19
2019-05-10T01:47:14.365Z,10.17
2019-05-10T01:48:14.339Z,10.17
2019-05-10T01:49:14.316Z,10.17
2019-05-10T01:50:14.290Z,10.06
2019-05-10T01:51:14.266Z,10.19
2019-05-10T01:52:14.242Z,10.17
2019-05-10T01:53:14.217Z,10.10
2019-05-10T01:54:14.192Z,10.10
2019-05-10T01:55:14.168Z,10.10
2019-05-10T01:56:14.145Z,10.17
2019-05-10T01:57:14.119Z,10.07
2019-05-10T01:58:14.094Z,10.19
2019-05-10T01:59:14.070Z,10.18
2019-05-10T02:00:14.045Z,10.17
2019-05-10T02:01:14.031Z,10.15
2019-05-10T02:02:13.997Z,10.24
2019-05-10T02:03:13.971Z,10.25
2019-05-10T02:04:17.395Z,10.24
2019-05-10T02:05:13.922Z,10.25
2019-05-10T02:06:13.897Z,10.30
2019-05-10T02:07:16.876Z,10.25
2019-05-10T02:08:13.859Z,10.19
2019-05-10T02:09:13.848Z,10.12
2019-05-10T02:10:13.800Z,10.18
2019-05-10T02:11:13.812Z,10.15
2019-05-10T02:12:13.751Z,10.14
2019-05-10T02:13:13.725Z,10.18
2019-05-10T02:14:13.700Z,10.04
2019-05-10T02:15:13.677Z,10.15
2019-05-10T02:16:13.651Z,10.12
2019-05-10T02:17:13.626Z,10.19
2019-05-10T02:18:13.603Z,10.17
2019-05-10T02:19:13.577Z,10.24
2019-05-10T02:20:13.559Z,10.24
2019-05-10T02:21:13.529Z,10.26
2019-05-10T02:22:13.505Z,10.19
2019-05-10T02:23:13.481Z,10.19
2019-05-10T02:24:13.458Z,10.25
2019-05-10T02:25:13.431Z,10.32
2019-05-10T02:26:13.408Z,10.37
2019-05-10T02:27:13.385Z,10.36
2019-05-10T02:28:13.366Z,10.39
2019-05-10T02:29:13.334Z,10.36
2019-05-10T02:30:13.310Z,10.37
2019-05-10T02:31:13.290Z,10.40
2019-05-10T02:32:13.263Z,10.43
2019-05-10T02:33:13.237Z,10.42
2019-05-10T02:34:13.212Z,10.43
2019-05-10T02:35:13.202Z,10.42
2019-05-10T02:36:13.163Z,10.46
2019-05-10T02:37:13.140Z,10.47
2019-05-10T02:38:13.118Z,10.51
2019-05-10T02:39:13.093Z,10.46
2019-05-10T02:40:13.067Z,10.39
2019-05-10T02:41:13.041Z,10.53
2019-05-10T02:42:13.016Z,10.52
2019-05-10T02:43:12.993Z,10.51
2019-05-10T02:44:12.969Z,10.53
2019-05-10T02:45:14.445Z,10.43
2019-05-10T02:46:12.929Z,10.37
2019-05-10T02:47:12.905Z,10.43
2019-05-10T02:48:12.872Z,10.42
2019-05-10T02:49:12.847Z,10.51
2019-05-10T02:50:12.825Z,10.40
2019-05-10T02:51:12.859Z,10.42
2019-05-10T02:52:12.777Z,10.40
2019-05-10T02:53:12.755Z,10.42
2019-05-10T02:54:12.731Z,10.40
2019-05-10T02:55:12.702Z,10.42
2019-05-10T02:56:29.055Z,10.42
2019-05-10T02:57:12.756Z,10.43
2019-05-10T02:58:15.348Z,10.32
2019-05-10T02:59:12.611Z,10.43
2019-05-10T03:00:12.583Z,10.34
2019-05-10T03:01:12.557Z,10.39
2019-05-10T03:02:12.537Z,10.28
2019-05-10T03:03:12.524Z,10.28
2019-05-10T03:04:12.489Z,10.22
2019-05-10T03:05:12.461Z,10.32
2019-05-10T03:06:12.439Z,10.25
2019-05-10T03:07:12.415Z,10.28
2019-05-10T03:08:12.395Z,10.24
2019-05-10T03:09:12.366Z,10.24
2019-05-10T03:10:12.345Z,10.24
2019-05-10T03:11:12.319Z,10.30
2019-05-10T03:12:13.047Z,10.30
2019-05-10T03:13:12.269Z,10.21
2019-05-10T03:14:12.247Z,10.24
2019-05-10T03:15:12.253Z,10.17
2019-05-10T03:16:12.197Z,10.24
2019-05-10T03:17:12.174Z,10.26
2019-05-10T03:18:12.149Z,10.26
2019-05-10T03:19:12.126Z,10.25
2019-05-10T03:20:12.117Z,10.17
2019-05-10T03:21:12.082Z,10.28
2019-05-10T03:22:12.054Z,10.18
2019-05-10T03:23:12.031Z,10.25
2019-05-10T03:24:12.008Z,10.25
2019-05-10T03:25:12.007Z,10.26
2019-05-10T03:26:11.957Z,10.32
2019-05-10T03:27:11.933Z,10.25
2019-05-10T03:28:11.910Z,10.26
2019-05-10T03:29:11.886Z,10.32
2019-05-10T03:30:11.871Z,10.24
2019-05-10T03:31:11.846Z,10.32
2019-05-10T03:32:11.818Z,10.24
2019-05-10T03:33:11.793Z,10.25
2019-05-10T03:34:11.765Z,10.28
2019-05-10T03:35:11.747Z,10.24
2019-05-10T03:36:11.716Z,10.22
2019-05-10T03:37:11.691Z,10.18
2019-05-10T03:38:11.667Z,10.12
2019-05-10T03:39:11.645Z,10.19
2019-05-10T03:40:11.622Z,10.24
2019-05-10T03:41:11.596Z,10.25
2019-05-10T03:42:11.573Z,10.25
2019-05-10T03:43:11.660Z,10.33
2019-05-10T03:44:11.524Z,10.21
2019-05-10T03:45:11.505Z,10.30
2019-05-10T03:46:11.476Z,10.26
2019-05-10T03:47:11.453Z,10.17
2019-05-10T03:48:11.436Z,10.24
2019-05-10T03:49:11.404Z,10.30
2019-05-10T03:50:11.382Z,10.18
2019-05-10T03:51:11.357Z,10.19
2019-05-10T03:52:11.332Z,10.17
2019-05-10T03:53:11.307Z,10.26
2019-05-10T03:54:11.285Z,10.28
2019-05-10T03:55:11.258Z,10.22
2019-05-10T03:56:11.245Z,10.18
2019-05-10T03:57:14.290Z,10.28
2019-05-10T03:58:11.194Z,10.18
2019-05-10T03:59:11.164Z,10.17
2019-05-10T04:00:11.182Z,10.18
2019-05-10T04:01:11.119Z,10.21
2019-05-10T04:02:11.092Z,10.18
2019-05-10T04:03:11.078Z,10.24
2019-05-10T04:04:11.056Z,10.25
2019-05-10T04:05:11.027Z,10.26
2019-05-10T04:06:11.002Z,10.22
2019-05-10T04:07:10.971Z,10.25
2019-05-10T04:08:10.950Z,10.30
2019-05-10T04:09:11.013Z,10.30
2019-05-10T04:10:11.648Z,10.25
2019-05-10T04:11:10.883Z,10.25
2019-05-10T04:12:10.855Z,10.25
2019-05-10T04:13:10.832Z,10.18
2019-05-10T04:14:10.813Z,10.26
2019-05-10T04:15:10.780Z,10.24
2019-05-10T04:16:10.755Z,10.17
2019-05-10T04:17:10.730Z,10.17
2019-05-10T04:18:10.715Z,10.24
2019-05-10T04:19:10.683Z,10.28
2019-05-10T04:20:10.660Z,10.28
2019-05-10T04:21:10.635Z,10.30
2019-05-10T04:22:10.614Z,10.22
2019-05-10T04:23:10.587Z,10.39
2019-05-10T04:24:10.565Z,10.36
2019-05-10T04:25:10.540Z,10.37
2019-05-10T04:26:10.525Z,10.46
2019-05-10T04:27:29.505Z,10.51
2019-05-10T04:28:10.470Z,10.53
2019-05-10T04:29:10.442Z,10.43
2019-05-10T04:30:10.420Z,10.52
2019-05-10T04:31:10.396Z,10.39
2019-05-10T04:32:10.371Z,10.46
2019-05-10T04:33:10.347Z,10.52
2019-05-10T04:34:10.328Z,10.52
2019-05-10T04:35:10.300Z,10.58
2019-05-10T04:36:12.707Z,10.43
2019-05-10T04:37:10.251Z,10.51
2019-05-10T04:38:10.227Z,10.43
2019-05-10T04:39:10.203Z,10.47
2019-05-10T04:40:10.182Z,10.40
2019-05-10T04:41:10.252Z,10.36
2019-05-10T04:42:10.880Z,10.34
2019-05-10T04:43:10.106Z,10.40
2019-05-10T04:44:10.093Z,10.40
2019-05-10T04:45:10.165Z,10.44
2019-05-10T04:46:10.038Z,10.44
2019-05-10T04:47:10.010Z,10.34
2019-05-10T04:48:09.988Z,10.44
2019-05-10T04:49:09.960Z,10.44
2019-05-10T04:50:09.937Z,10.40
2019-05-10T04:51:09.918Z,10.55
2019-05-10T04:52:09.889Z,10.37
2019-05-10T04:53:09.864Z,10.42
2019-05-10T04:54:09.840Z,10.42
2019-05-10T04:55:09.822Z,10.51
2019-05-10T04:56:09.794Z,10.37
2019-05-10T04:57:09.771Z,10.39
2019-05-10T04:58:09.745Z,10.37
2019-05-10T04:59:09.720Z,10.53
2019-05-10T05:00:09.697Z,10.40
2019-05-10T05:01:09.673Z,10.44
2019-05-10T05:02:09.649Z,10.51
2019-05-10T05:03:09.625Z,10.43
2019-05-10T05:04:11.102Z,10.47
2019-05-10T05:05:09.581Z,10.44
2019-05-10T05:06:09.561Z,10.40
2019-05-10T05:07:09.531Z,10.37
2019-05-10T05:08:09.504Z,10.42
2019-05-10T05:09:09.480Z,10.46
2019-05-10T05:10:10.208Z,10.44
2019-05-10T05:11:09.433Z,10.53
2019-05-10T05:12:09.407Z,10.52
2019-05-10T05:13:09.383Z,10.56
2019-05-10T05:14:09.795Z,10.56
2019-05-10T05:15:09.335Z,10.44
2019-05-10T05:16:09.312Z,10.43
2019-05-10T05:17:09.287Z,10.53
2019-05-10T05:18:09.270Z,10.52
2019-05-10T05:19:09.240Z,10.53
2019-05-10T05:20:09.216Z,10.51
2019-05-10T05:21:09.192Z,10.46
2019-05-10T05:22:09.167Z,10.51
2019-05-10T05:23:09.143Z,10.55
2019-05-10T05:24:09.120Z,10.43
2019-05-10T05:25:09.097Z,10.52
2019-05-10T05:26:09.071Z,10.53
2019-05-10T05:27:09.047Z,10.52
2019-05-10T05:28:09.024Z,10.60
2019-05-10T05:29:08.999Z,10.47
2019-05-10T05:30:08.976Z,10.52
2019-05-10T05:31:08.958Z,10.51
2019-05-10T05:32:08.943Z,10.52
2019-05-10T05:33:08.905Z,10.52
2019-05-10T05:34:08.880Z,10.56
2019-05-10T05:35:08.855Z,10.58
2019-05-10T05:36:08.834Z,10.59
2019-05-10T05:37:08.811Z,10.56
2019-05-10T05:38:08.784Z,10.68
2019-05-10T05:39:08.760Z,10.68
2019-05-10T05:40:08.737Z,10.66
2019-05-10T05:41:08.721Z,10.71
2019-05-10T05:42:08.712Z,10.78
2019-05-10T05:43:09.852Z,10.73
2019-05-10T05:44:08.649Z,10.76
2019-05-10T05:45:08.616Z,10.71
2019-05-10T05:46:08.593Z,10.77
2019-05-10T05:47:08.569Z,10.88
2019-05-10T05:48:08.545Z,10.86
2019-05-10T05:49:08.522Z,10.95
2019-05-10T05:50:08.499Z,10.78
2019-05-10T05:51:08.508Z,10.74
2019-05-10T05:52:08.454Z,10.71
2019-05-10T05:53:08.427Z,10.66
2019-05-10T05:54:08.453Z,10.76
2019-05-10T05:55:08.380Z,10.78
2019-05-10T05:56:12.506Z,10.80
2019-05-10T05:57:08.334Z,10.81
2019-05-10T05:58:25.291Z,10.83
2019-05-10T05:59:09.103Z,10.74
2019-05-10T06:00:08.267Z,10.88
2019-05-10T06:01:08.246Z,10.81
2019-05-10T06:02:09.609Z,10.84
2019-05-10T06:03:08.192Z,10.96
2019-05-10T06:04:12.476Z,10.91
2019-05-10T06:05:08.143Z,10.92
2019-05-10T06:06:15.249Z,11.02
2019-05-10T06:07:08.097Z,10.99
2019-05-10T06:08:21.267Z,10.94
2019-05-10T06:09:08.049Z,10.99
2019-05-10T06:10:10.157Z,11.03
2019-05-10T06:11:09.179Z,11.02
2019-05-10T06:12:12.597Z,11.02
2019-05-10T06:13:09.463Z,11.11
2019-05-10T06:14:10.680Z,11.10
2019-05-10T06:15:07.918Z,11.07
2019-05-10T06:16:12.889Z,11.19
2019-05-10T06:17:07.864Z,11.14
2019-05-10T06:18:09.573Z,11.19
2019-05-10T06:19:07.821Z,11.21
2019-05-10T06:20:07.923Z,11.25
2019-05-10T06:21:07.766Z,11.14
2019-05-10T06:22:07.743Z,11.06
2019-05-10T06:23:07.725Z,11.24
2019-05-10T06:24:13.385Z,11.25
2019-05-10T06:25:07.683Z,11.34
2019-05-10T06:26:08.071Z,11.38
2019-05-10T06:27:07.628Z,11.44
2019-05-10T06:28:25.015Z,11.64
2019-05-10T06:29:16.339Z,11.59
2019-05-10T06:30:07.556Z,11.71
2019-05-10T06:31:07.558Z,11.74
2019-05-10T06:32:07.511Z,11.68
2019-05-10T06:33:12.538Z,11.57
2019-05-10T06:34:07.465Z,11.59
2019-05-10T06:35:07.440Z,11.62
2019-05-10T06:36:07.417Z,11.72
2019-05-10T06:37:07.394Z,11.62
2019-05-10T06:38:07.370Z,11.47
2019-05-10T06:39:07.348Z,11.52
2019-05-10T06:40:08.833Z,11.56
2019-05-10T06:41:10.270Z,11.62
2019-05-10T06:42:07.278Z,11.70
2019-05-10T06:43:13.403Z,11.75
2019-05-10T06:44:07.232Z,11.72
2019-05-10T06:45:14.540Z,11.77
2019-05-10T06:46:08.688Z,11.89
2019-05-10T06:47:08.109Z,11.89
2019-05-10T06:48:07.140Z,11.97
2019-05-10T06:49:09.801Z,12.04
2019-05-10T06:50:07.094Z,12.05
2019-05-10T06:51:09.555Z,12.06
2019-05-10T06:52:07.047Z,11.93
2019-05-10T06:53:10.544Z,11.93
2019-05-10T06:54:07.020Z,12.09
2019-05-10T06:55:06.979Z,11.90
2019-05-10T06:56:06.957Z,11.90
2019-05-10T06:57:11.094Z,12.02
2019-05-10T06:58:06.911Z,12.09
2019-05-10T06:59:13.655Z,12.19
2019-05-10T07:00:08.063Z,12.05
2019-05-10T07:01:06.842Z,12.05
2019-05-10T07:02:06.820Z,12.02
2019-05-10T07:03:06.797Z,12.01
2019-05-10T07:04:06.775Z,12.05
2019-05-10T07:05:06.754Z,12.15
2019-05-10T07:06:06.729Z,12.19
2019-05-10T07:07:09.695Z,12.09
2019-05-10T07:08:15.030Z,12.19
2019-05-10T07:09:06.660Z,12.16
2019-05-10T07:10:17.673Z,11.99
2019-05-10T07:11:06.616Z,12.15
2019-05-10T07:12:09.298Z,12.20
2019-05-10T07:13:06.895Z,12.08
2019-05-10T07:14:06.550Z,12.11
2019-05-10T07:15:06.526Z,12.15
2019-05-10T07:16:06.502Z,12.19
2019-05-10T07:17:06.482Z,12.16
2019-05-10T07:18:06.457Z,12.23
2019-05-10T07:19:06.435Z,12.21
2019-05-10T07:20:06.412Z,12.23
2019-05-10T07:21:08.581Z,12.11
2019-05-10T07:22:06.366Z,12.02
2019-05-10T07:23:07.855Z,12.06
2019-05-10T07:24:06.321Z,11.97
2019-05-10T07:25:07.618Z,12.05
2019-05-10T07:26:09.687Z,12.06
2019-05-10T07:27:06.251Z,12.09
2019-05-10T07:28:13.352Z,12.11
2019-05-10T07:29:06.215Z,12.04
2019-05-10T07:30:06.187Z,11.87
2019-05-10T07:31:06.162Z,11.89
2019-05-10T07:32:06.150Z,11.97
2019-05-10T07:33:06.119Z,12.02
2019-05-10T07:34:09.656Z,12.13
2019-05-10T07:35:06.069Z,12.06
2019-05-10T07:36:14.460Z,11.99
2019-05-10T07:37:06.024Z,12.08
2019-05-10T07:38:06.001Z,12.04
2019-05-10T07:39:08.239Z,12.04
2019-05-10T07:40:05.960Z,12.12
2019-05-10T07:41:05.983Z,12.24
2019-05-10T07:42:06.873Z,12.21
2019-05-10T07:43:05.888Z,12.48
2019-05-10T07:44:08.181Z,12.45
2019-05-10T07:45:05.844Z,12.49
2019-05-10T07:46:06.825Z,12.48
2019-05-10T07:47:05.797Z,12.51
2019-05-10T07:48:08.039Z,12.66
2019-05-10T07:49:05.750Z,12.70
2019-05-10T07:50:09.786Z,12.64
2019-05-10T07:51:05.718Z,12.49
2019-05-10T07:52:05.684Z,12.56
2019-05-10T07:53:05.661Z,12.59
2019-05-10T07:54:06.458Z,12.69
2019-05-10T07:55:05.622Z,12.95
2019-05-10T07:56:06.659Z,12.60
2019-05-10T07:57:06.327Z,12.48
2019-05-10T07:58:07.086Z,12.38
2019-05-10T07:59:05.527Z,12.54
2019-05-10T08:00:06.127Z,12.62
2019-05-10T08:01:05.482Z,12.69
2019-05-10T08:02:12.234Z,12.75
2019-05-10T08:03:15.230Z,12.74
2019-05-10T08:04:05.416Z,12.70
2019-05-10T08:05:10.869Z,12.74
2019-05-10T08:06:05.374Z,12.57
2019-05-10T08:07:07.539Z,12.74
2019-05-10T08:08:05.329Z,12.67
2019-05-10T08:09:07.112Z,12.70
2019-05-10T08:10:05.287Z,12.78
2019-05-10T08:11:05.262Z,13.02
2019-05-10T08:12:05.572Z,13.02
2019-05-10T08:13:05.218Z,13.25
2019-05-10T08:14:06.593Z,13.46
2019-05-10T08:15:05.176Z,13.71
2019-05-10T08:16:09.850Z,13.29
2019-05-10T08:17:06.270Z,13.18
2019-05-10T08:18:05.110Z,12.95
2019-05-10T08:19:05.089Z,13.03
2019-05-10T08:20:09.029Z,13.22
2019-05-10T08:21:20.962Z,13.00
2019-05-10T08:22:05.027Z,12.81
2019-05-10T08:23:05.004Z,12.96
2019-05-10T08:24:13.727Z,12.88
2019-05-10T08:25:04.960Z,13.06
2019-05-10T08:26:04.940Z,13.18
2019-05-10T08:27:11.205Z,13.15
2019-05-10T08:28:05.565Z,12.99
2019-05-10T08:29:07.548Z,12.87
2019-05-10T08:30:20.074Z,12.64
2019-05-10T08:31:04.833Z,12.63
2019-05-10T08:32:04.811Z,12.70
2019-05-10T08:33:09.328Z,12.63
2019-05-10T08:34:04.768Z,12.75
2019-05-10T08:35:05.457Z,12.87
2019-05-10T08:36:05.443Z,13.02
2019-05-10T08:37:04.702Z,13.14
2019-05-10T08:38:04.723Z,13.30
2019-05-10T08:39:10.291Z,13.47
2019-05-10T08:40:04.638Z,13.21
2019-05-10T08:41:08.201Z,13.30
2019-05-10T08:42:19.811Z,13.40
2019-05-10T08:43:08.405Z,13.52
2019-05-10T08:44:05.106Z,13.37
2019-05-10T08:45:08.649Z,12.96
2019-05-10T08:46:05.259Z,12.99
2019-05-10T08:47:07.735Z,13.15
2019-05-10T08:48:06.870Z,13.15
2019-05-10T08:49:04.445Z,13.27
2019-05-10T08:50:17.992Z,13.56
2019-05-10T08:51:07.560Z,13.81
2019-05-10T08:52:04.379Z,13.95
2019-05-10T08:53:10.527Z,13.98
2019-05-10T08:54:04.338Z,13.71
2019-05-10T08:55:04.319Z,13.87
2019-05-10T08:56:07.651Z,13.80
2019-05-10T08:57:05.275Z,13.77
2019-05-10T08:58:04.254Z,13.56
2019-05-10T08:59:09.422Z,13.09
2019-05-10T09:00:08.858Z,13.00
2019-05-10T09:01:16.660Z,12.93
2019-05-10T09:02:04.169Z,13.06
2019-05-10T09:03:09.398Z,13.21
2019-05-10T09:04:06.806Z,13.37
2019-05-10T09:05:04.106Z,13.40
2019-05-10T09:06:11.512Z,13.38
2019-05-10T09:07:04.065Z,13.44
2019-05-10T09:08:05.817Z,13.58
2019-05-10T09:09:08.214Z,13.69
2019-05-10T09:10:03.999Z,13.58
2019-05-10T09:11:06.805Z,13.44
2019-05-10T09:12:08.922Z,13.37
2019-05-10T09:13:06.188Z,13.09
2019-05-10T09:14:03.917Z,13.14
2019-05-10T09:15:09.372Z,13.17
2019-05-10T09:16:03.872Z,13.07
2019-05-10T09:17:04.596Z,12.81
2019-05-10T09:18:07.361Z,12.88
2019-05-10T09:19:03.807Z,12.92
2019-05-10T09:20:03.787Z,13.00
2019-05-10T09:21:08.917Z,13.09
2019-05-10T09:22:03.743Z,13.14
2019-05-10T09:23:08.773Z,13.11
2019-05-10T09:24:06.530Z,13.29
2019-05-10T09:25:03.676Z,13.56
2019-05-10T09:26:10.230Z,13.73
2019-05-10T09:27:03.636Z,13.88
2019-05-10T09:28:11.580Z,13.92
2019-05-10T09:29:03.591Z,13.73
2019-05-10T09:30:08.226Z,13.92
2019-05-10T09:31:17.071Z,13.95
2019-05-10T09:32:06.230Z,14.28
2019-05-10T09:33:08.772Z,14.14
2019-05-10T09:34:03.486Z,14.16
2019-05-10T09:35:07.554Z,14.32
2019-05-10T09:36:03.443Z,14.64
2019-05-10T09:37:08.016Z,14.68
2019-05-10T09:38:03.413Z,14.29
2019-05-10T09:39:03.559Z,14.19
2019-05-10T09:40:09.464Z,14.24
2019-05-10T09:41:03.340Z,14.02
2019-05-10T09:42:08.449Z,14.01
2019-05-10T09:43:05.275Z,13.94
2019-05-10T09:44:03.278Z,13.76
2019-05-10T09:45:03.289Z,13.95
2019-05-10T09:46:03.236Z,14.19
2019-05-10T09:47:03.997Z,13.95
2019-05-10T09:48:03.206Z,13.94
2019-05-10T09:49:10.021Z,13.84
2019-05-10T09:50:03.156Z,13.74
2019-05-10T09:51:04.062Z,13.87
2019-05-10T09:52:04.472Z,14.01
2019-05-10T09:53:03.092Z,13.99
2019-05-10T09:54:03.097Z,13.92
2019-05-10T09:55:03.965Z,13.83
2019-05-10T09:56:03.433Z,13.79
2019-05-10T09:57:03.013Z,13.89
2019-05-10T09:58:02.988Z,13.99
2019-05-10T09:59:02.968Z,13.89
2019-05-10T10:00:02.947Z,13.69
2019-05-10T10:01:14.854Z,13.37
2019-05-10T10:02:04.969Z,13.43
2019-05-10T10:03:02.885Z,13.44
2019-05-10T10:04:02.865Z,13.15
2019-05-10T10:05:02.846Z,13.37
2019-05-10T10:06:10.173Z,13.38
2019-05-10T10:07:02.802Z,13.30
2019-05-10T10:08:03.717Z,13.40
2019-05-10T10:09:02.760Z,13.69
2019-05-10T10:10:02.739Z,14.02
2019-05-10T10:11:14.095Z,14.09
2019-05-10T10:12:03.468Z,14.20
2019-05-10T10:13:08.400Z,14.19
2019-05-10T10:14:02.655Z,14.32
2019-05-10T10:15:02.635Z,14.13
2019-05-10T10:16:04.203Z,14.01
2019-05-10T10:17:03.304Z,14.35
2019-05-10T10:18:02.575Z,14.17
2019-05-10T10:19:02.553Z,14.32
2019-05-10T10:20:02.564Z,14.27
2019-05-10T10:21:02.511Z,14.53
2019-05-10T10:22:05.563Z,14.34
2019-05-10T10:23:02.472Z,14.19
2019-05-10T10:24:14.515Z,14.34
2019-05-10T10:25:02.432Z,14.60
2019-05-10T10:26:02.417Z,14.34
2019-05-10T10:27:02.393Z,14.19
2019-05-10T10:28:10.374Z,14.43
2019-05-10T10:29:02.351Z,14.65
2019-05-10T10:30:06.572Z,14.95
2019-05-10T10:31:05.314Z,15.01
2019-05-10T10:32:02.291Z,15.27
2019-05-10T10:33:05.710Z,15.21
2019-05-10T10:34:03.296Z,15.20
2019-05-10T10:35:02.233Z,15.05
2019-05-10T10:36:10.318Z,14.72
2019-05-10T10:37:02.194Z,14.42
2019-05-10T10:38:02.959Z,14.17
2019-05-10T10:39:02.151Z,14.16
2019-05-10T10:40:05.588Z,13.95
2019-05-10T10:41:02.111Z,14.01
2019-05-10T10:42:07.507Z,14.16
2019-05-10T10:43:02.069Z,14.16
2019-05-10T10:44:02.053Z,14.25
2019-05-10T10:45:02.029Z,14.54
2019-05-10T10:46:02.023Z,14.75
2019-05-10T10:47:01.992Z,15.05
2019-05-10T10:48:02.440Z,14.94
2019-05-10T10:49:01.944Z,15.02
2019-05-10T10:50:03.075Z,15.09
2019-05-10T10:51:01.904Z,14.99
2019-05-10T10:52:05.707Z,14.98
2019-05-10T10:53:01.861Z,14.87
2019-05-10T10:54:01.871Z,14.91
2019-05-10T10:55:05.785Z,14.80
2019-05-10T10:56:03.731Z,14.95
2019-05-10T10:57:01.780Z,15.31
2019-05-10T10:58:01.759Z,15.24
2019-05-10T10:59:01.739Z,15.03
2019-05-10T11:00:01.720Z,15.20
2019-05-10T11:01:01.713Z,15.60
2019-05-10T11:02:27.871Z,15.88
2019-05-10T11:03:01.663Z,16.18
2019-05-10T11:04:03.738Z,16.27
2019-05-10T11:05:01.621Z,16.27
2019-05-10T11:06:01.599Z,16.18
2019-05-10T11:07:10.310Z,16.07
2019-05-10T11:08:01.559Z,15.89
2019-05-10T11:09:01.848Z,15.60
2019-05-10T11:10:14.689Z,15.68
2019-05-10T11:11:01.501Z,15.70
2019-05-10T11:12:01.481Z,15.68
2019-05-10T11:13:05.783Z,15.92
2019-05-10T11:14:07.066Z,15.97
2019-05-10T11:15:01.425Z,16.01
2019-05-10T11:16:09.658Z,15.97
2019-05-10T11:17:01.387Z,16.20
2019-05-10T11:18:01.367Z,16.16
2019-05-10T11:19:03.708Z,16.37
2019-05-10T11:20:01.329Z,16.62
2019-05-10T11:21:02.125Z,16.73
2019-05-10T11:22:02.194Z,16.48
2019-05-10T11:23:01.273Z,16.49
2019-05-10T11:24:01.482Z,16.45
2019-05-10T11:25:08.880Z,15.70
2019-05-10T11:26:01.451Z,15.54
2019-05-10T11:27:01.239Z,15.70
2019-05-10T11:28:01.885Z,16.04
2019-05-10T11:29:01.406Z,16.37
2019-05-10T11:30:01.209Z,16.42
2019-05-10T11:31:01.286Z,16.48
2019-05-10T11:32:15.163Z,16.56
2019-05-10T11:33:01.087Z,16.88
2019-05-10T11:34:01.658Z,16.62
2019-05-10T11:35:01.051Z,16.25
2019-05-10T11:36:04.064Z,16.33
2019-05-10T11:37:01.014Z,16.16
2019-05-10T11:38:01.264Z,16.25
2019-05-10T11:39:01.649Z,16.34
2019-05-10T11:40:01.801Z,16.52
2019-05-10T11:41:02.014Z,16.85
2019-05-10T11:42:06.757Z,16.73
2019-05-10T11:43:01.498Z,16.56
2019-05-10T11:44:05.510Z,16.53
2019-05-10T11:45:00.954Z,16.42
2019-05-10T11:46:00.849Z,16.50
2019-05-10T11:47:01.552Z,16.33
2019-05-10T11:48:02.182Z,16.30
2019-05-10T11:49:01.743Z,16.42
2019-05-10T11:50:06.288Z,16.60
2019-05-10T11:51:00.761Z,16.31
2019-05-10T11:52:01.637Z,16.23
2019-05-10T11:53:01.046Z,16.62
2019-05-10T11:54:01.454Z,16.48
2019-05-10T11:55:01.206Z,16.68
2019-05-10T11:56:01.992Z,16.35
2019-05-10T11:57:06.590Z,16.60
2019-05-10T11:59:02.519Z,17.33
2019-05-10T12:00:00.594Z,17.46
2019-05-10T12:01:12.860Z,17.76
2019-05-10T12:02:02.895Z,17.06
2019-05-10T12:03:08.791Z,16.83
2019-05-10T12:04:02.148Z,17.11
2019-05-10T12:05:11.121Z,17.30
2019-05-10T12:06:06.154Z,17.17
2019-05-10T12:07:02.697Z,17.23
2019-05-10T12:08:02.132Z,17.33
2019-05-10T12:09:03.854Z,17.88
2019-05-10T12:10:08.302Z,18.15
2019-05-10T12:11:10.988Z,18.17
2019-05-10T12:12:03.295Z,17.40
2019-05-10T12:14:02.402Z,16.80
2019-05-10T12:15:04.369Z,17.13
2019-05-10T12:16:00.307Z,16.90
2019-05-10T12:17:02.274Z,17.15
2019-05-10T12:18:04.536Z,17.33
2019-05-10T12:19:10.551Z,17.59
2019-05-10T12:20:02.548Z,18.00
2019-05-10T12:21:09.052Z,17.91
2019-05-10T12:22:04.697Z,18.03
2019-05-10T12:23:03.179Z,17.48
2019-05-10T12:24:10.316Z,16.99
2019-05-10T12:25:23.306Z,16.90
2019-05-10T12:26:18.785Z,16.86
2019-05-10T12:26:27.034Z,17.00
2019-05-10T12:27:13.340Z,16.89
2019-05-10T12:27:18.473Z,16.62
2019-05-10T12:28:01.253Z,16.45
2019-05-10T12:29:11.516Z,16.70
2019-05-10T12:30:03.255Z,17.03
2019-05-10T12:31:01.447Z,17.32
2019-05-10T12:32:00.025Z,17.54
2019-05-10T12:33:08.048Z,17.55
2019-05-10T12:34:08.727Z,17.74
2019-05-10T12:35:01.495Z,17.89
2019-05-10T12:35:59.954Z,18.06
2019-05-10T12:37:03.858Z,18.07
2019-05-10T12:38:01.670Z,17.46
2019-05-10T12:39:01.829Z,17.10
2019-05-10T12:40:09.006Z,16.78
2019-05-10T12:41:01.343Z,16.90
2019-05-10T12:41:59.847Z,17.15
2019-05-10T12:43:00.667Z,17.62
2019-05-10T12:44:04.072Z,17.63
2019-05-10T12:45:01.259Z,17.95
2019-05-10T12:45:59.779Z,18.33
2019-05-10T12:47:01.315Z,18.33
2019-05-10T12:48:01.288Z,18.29
2019-05-10T12:49:02.071Z,18.39
2019-05-10T12:50:02.064Z,18.27
2019-05-10T12:51:07.563Z,18.22
2019-05-10T12:51:59.670Z,18.59